createdAt,value
2022-12-08T00:02:31.669Z,24.63
2022-12-08T00:17:13.690Z,26.00
2022-12-08T00:32:02.871Z,20.34
2022-12-08T00:46:52.941Z,21.17
2022-12-08T01:01:42.831Z,22.69
2022-12-08T01:16:33.243Z,21.20
2022-12-08T01:31:55.843Z,21.07
2022-12-08T01:46:14.479Z,19.38
2022-12-08T02:01:04.157Z,22.27
2022-12-08T02:16:12.399Z,21.40
2022-12-08T02:31:31.878Z,18.93
2022-12-08T02:46:29.302Z,16.17
2022-12-08T03:01:44.387Z,17.19
2022-12-08T03:16:37.550Z,19.80
2022-12-08T03:31:28.524Z,17.23
2022-12-08T03:46:18.737Z,21.50
2022-12-08T04:01:11.005Z,21.21
2022-12-08T04:16:08.253Z,22.71
2022-12-08T04:30:58.125Z,21.99
2022-12-08T04:45:49.928Z,20.22
2022-12-08T05:00:49.082Z,29.40
2022-12-08T05:15:36.933Z,20.97
2022-12-08T05:30:26.812Z,24.67
2022-12-08T05:45:16.638Z,23.36
2022-12-08T06:14:56.687Z,30.89
2022-12-08T06:29:47.273Z,28.24
2022-12-08T06:44:38.348Z,23.00
2022-12-08T06:59:30.373Z,25.20
2022-12-08T07:14:19.900Z,23.04
2022-12-08T07:29:11.205Z,26.09
2022-12-08T07:44:02.370Z,25.62
2022-12-08T07:58:54.488Z,22.88
2022-12-08T08:13:47.843Z,25.66
2022-12-08T08:43:34.459Z,26.53
2022-12-08T08:58:20.349Z,26.96
2022-12-08T09:13:11.994Z,24.26
2022-12-08T09:28:02.885Z,23.49
2022-12-08T09:43:11.355Z,26.24
2022-12-08T09:58:07.080Z,28.42
2022-12-08T10:12:58.112Z,28.29
2022-12-08T10:27:50.869Z,27.94
2022-12-08T10:42:40.610Z,25.06
2022-12-08T10:57:30.437Z,22.76
2022-12-08T11:12:21.574Z,23.41
2022-12-08T11:27:11.473Z,22.89
2022-12-08T11:42:02.468Z,23.22
2022-12-08T11:56:54.312Z,23.48
2022-12-08T12:12:14.017Z,20.08
2022-12-08T12:27:15.461Z,16.21
2022-12-08T12:42:10.408Z,10.07
2022-12-08T12:57:10.590Z,9.47
2022-12-08T13:12:09.240Z,10.01
2022-12-08T13:27:03.720Z,7.56
2022-12-08T13:41:59.183Z,10.07
2022-12-08T13:57:08.908Z,10.04
2022-12-08T14:11:57.220Z,10.96
2022-12-08T14:26:52.207Z,9.98
2022-12-08T14:41:42.419Z,10.18
2022-12-08T14:56:39.636Z,11.04
2022-12-08T15:11:33.894Z,12.49
2022-12-08T15:26:23.811Z,11.70
2022-12-08T15:41:15.366Z,8.92
2022-12-08T15:56:27.026Z,7.27
2022-12-08T16:11:41.165Z,8.62
2022-12-08T16:26:16.462Z,8.24
2022-12-08T16:40:38.310Z,9.51
2022-12-08T16:55:33.437Z,9.57
2022-12-08T17:10:25.138Z,10.80
2022-12-08T17:25:15.280Z,10.66
2022-12-08T17:40:06.721Z,8.59
2022-12-08T17:54:56.471Z,10.16
2022-12-08T18:09:46.628Z,8.60
2022-12-08T18:24:37.206Z,8.31
2022-12-08T18:39:29.734Z,8.32
2022-12-08T18:54:37.099Z,9.83
2022-12-08T19:24:03.271Z,10.60
2022-12-08T19:39:12.656Z,11.17
2022-12-08T20:23:50.153Z,12.71
2022-12-08T20:38:39.934Z,14.79
2022-12-08T20:53:30.404Z,15.10
2022-12-08T21:08:22.725Z,14.62
2022-12-08T21:23:11.495Z,12.60
2022-12-08T21:38:02.504Z,16.53
2022-12-08T21:52:52.628Z,13.28
2022-12-08T22:07:42.131Z,15.02
2022-12-08T22:22:35.067Z,13.02
2022-12-08T22:37:27.450Z,12.42
2022-12-08T22:52:16.690Z,14.56
2022-12-08T23:07:06.967Z,12.97
2022-12-08T23:21:57.467Z,14.59
2022-12-08T23:36:48.097Z,13.66
2022-12-08T23:51:37.750Z,14.81
